Time;durP1;ratioP1;P1;durP2;ratioP2;P2;SDS_P1;SDS_P2;PMS_P1;PMS_P2;Temp;Humidity;BMP_temperature;BMP_pressure;BME280_temperature;BME280_humidity;BME280_pressure;Samples;Min_cycle;Max_cycle;Signal;HPM_P1;HPM_P2
2022/07/10 00:00:38;;;;;;;3.53;2.70;;;17.00;80.70;;;;;;934403;149;27497;-74
2022/07/10 00:03:05;;;;;;;3.53;3.23;;;17.00;81.00;;;;;;952644;146;27358;-75
2022/07/10 00:05:31;;;;;;;3.33;2.60;;;17.00;80.70;;;;;;953112;146;27357;-74
2022/07/10 00:07:58;;;;;;;2.60;2.40;;;17.00;80.60;;;;;;952280;146;27321;-75
2022/07/10 00:10:24;;;;;;;2.93;2.53;;;17.00;80.70;;;;;;934755;149;27332;-74
2022/07/10 00:12:51;;;;;;;2.43;2.23;;;17.00;80.70;;;;;;951246;146;27373;-75
2022/07/10 00:15:18;;;;;;;2.83;2.63;;;17.00;81.00;;;;;;953896;146;27340;-74
2022/07/10 00:17:44;;;;;;;2.30;2.10;;;17.00;81.00;;;;;;953928;146;27392;-74
2022/07/10 00:20:11;;;;;;;2.90;2.57;;;17.00;80.90;;;;;;952056;146;27414;-74
2022/07/10 00:22:40;;;;;;;2.33;2.20;;;17.00;80.80;;;;;;952615;146;27360;-74
2022/07/10 00:25:07;;;;;;;2.97;2.30;;;17.00;80.80;;;;;;953177;146;27307;-74
2022/07/10 00:27:33;;;;;;;1.97;1.83;;;17.00;80.60;;;;;;953210;146;27430;-74
2022/07/10 00:30:01;;;;;;;2.33;2.10;;;17.00;80.60;;;;;;953748;146;27439;-75
2022/07/10 00:32:26;;;;;;;2.20;1.70;;;17.00;80.60;;;;;;952920;146;27317;-75
2022/07/10 00:34:53;;;;;;;2.07;1.80;;;16.90;80.30;;;;;;952689;146;27450;-74
2022/07/10 00:37:22;;;;;;;2.10;1.73;;;16.90;80.30;;;;;;950183;146;27326;-75
2022/07/10 00:39:46;;;;;;;2.43;2.03;;;16.90;80.10;;;;;;951745;146;27321;-75
2022/07/10 00:42:13;;;;;;;3.27;2.03;;;16.90;80.30;;;;;;933917;149;27453;-74
2022/07/10 00:44:39;;;;;;;2.37;1.70;;;16.90;80.30;;;;;;931514;149;27567;-74
2022/07/10 00:47:06;;;;;;;2.47;1.87;;;16.90;80.50;;;;;;932233;150;27366;-74
2022/07/10 00:49:33;;;;;;;2.37;2.07;;;16.90;80.40;;;;;;932665;149;27628;-74
2022/07/10 00:51:59;;;;;;;2.40;1.93;;;16.90;80.60;;;;;;934179;149;27345;-74
2022/07/10 00:54:26;;;;;;;1.90;1.80;;;16.90;80.60;;;;;;931720;149;27478;-74
2022/07/10 00:56:52;;;;;;;2.00;1.90;;;16.90;80.90;;;;;;931286;149;27377;-74
2022/07/10 00:59:19;;;;;;;2.20;2.00;;;16.90;81.00;;;;;;932925;150;27357;-74
2022/07/10 01:01:46;;;;;;;1.90;1.80;;;16.90;81.00;;;;;;926991;150;27481;-74
2022/07/10 01:04:12;;;;;;;1.50;1.40;;;16.80;81.00;;;;;;917135;151;27421;-74
2022/07/10 01:06:39;;;;;;;2.23;1.93;;;16.90;81.30;;;;;;918512;151;27344;-75
2022/07/10 01:09:05;;;;;;;1.90;1.80;;;16.80;81.10;;;;;;916435;151;27431;-74
2022/07/10 01:11:32;;;;;;;4.03;1.90;;;16.80;81.20;;;;;;918146;151;27272;-75
2022/07/10 01:13:58;;;;;;;2.23;1.80;;;16.80;81.00;;;;;;933828;148;27339;-75
2022/07/10 01:16:25;;;;;;;4.47;2.13;;;16.70;81.00;;;;;;936044;148;27338;-75
2022/07/10 01:18:52;;;;;;;2.30;1.73;;;16.70;80.80;;;;;;933937;148;27342;-75
2022/07/10 01:21:31;;;;;;;3.83;1.87;;;16.70;80.90;;;;;;935865;148;27373;-74
2022/07/10 01:23:57;;;;;;;2.50;2.10;;;16.70;80.90;;;;;;934589;148;27416;-75
2022/07/10 01:26:23;;;;;;;2.87;1.63;;;16.60;80.70;;;;;;937024;148;27425;-75
2022/07/10 01:28:50;;;;;;;2.53;1.57;;;16.60;80.80;;;;;;933997;148;27412;-75
2022/07/10 01:31:26;;;;;;;1.97;1.60;;;16.60;80.80;;;;;;935512;148;27429;-75
2022/07/10 01:33:52;;;;;;;3.67;1.93;;;16.60;80.60;;;;;;935709;147;27361;-75
2022/07/10 01:36:19;;;;;;;2.37;1.70;;;16.50;80.50;;;;;;935104;148;27841;-75
2022/07/10 01:38:45;;;;;;;2.20;1.50;;;16.50;80.60;;;;;;935124;148;27319;-75
2022/07/10 01:41:12;;;;;;;1.70;1.53;;;16.50;80.70;;;;;;936172;148;27411;-75
2022/07/10 01:43:42;;;;;;;2.17;2.00;;;16.50;80.50;;;;;;934395;148;27417;-75
2022/07/10 01:46:05;;;;;;;1.93;1.70;;;16.50;80.50;;;;;;934056;148;27352;-75
2022/07/10 01:48:32;;;;;;;1.63;1.27;;;16.50;80.20;;;;;;935858;148;27468;-75
2022/07/10 01:50:58;;;;;;;2.27;1.40;;;16.50;80.10;;;;;;935830;148;27361;-75
2022/07/10 01:53:25;;;;;;;4.87;1.67;;;16.40;79.80;;;;;;936685;148;27394;-75
2022/07/10 01:55:51;;;;;;;2.67;1.60;;;16.40;79.70;;;;;;934226;148;27628;-75
2022/07/10 01:58:18;;;;;;;1.40;1.30;;;16.40;79.60;;;;;;934956;148;27345;-75
2022/07/10 02:00:44;;;;;;;3.97;1.53;;;16.30;79.20;;;;;;934833;148;27388;-75
2022/07/10 02:05:56;;;;;;;1.30;1.20;;;16.30;78.70;;;;;;937270;151;27453;-75
2022/07/10 02:08:22;;;;;;;1.23;1.13;;;16.30;78.20;;;;;;937915;151;27869;-75
2022/07/10 02:10:49;;;;;;;1.43;1.13;;;16.20;78.10;;;;;;921235;151;27332;-75
2022/07/10 02:13:19;;;;;;;2.43;1.20;;;16.20;77.80;;;;;;922200;152;27474;-75
2022/07/10 02:15:42;;;;;;;2.50;1.37;;;16.20;77.60;;;;;;920197;152;27389;-75
2022/07/10 02:18:09;;;;;;;1.90;1.20;;;16.20;77.40;;;;;;936360;149;27442;-75
2022/07/10 02:20:36;;;;;;;2.97;1.40;;;16.20;77.30;;;;;;935763;151;27412;-75
2022/07/10 02:23:02;;;;;;;1.13;1.10;;;16.20;77.10;;;;;;936582;151;27430;-75
2022/07/10 02:25:28;;;;;;;1.13;1.00;;;16.20;77.00;;;;;;937401;151;27369;-74
2022/07/10 02:27:55;;;;;;;1.83;1.17;;;16.20;77.00;;;;;;938384;149;27455;-75
2022/07/10 02:30:22;;;;;;;2.77;1.30;;;16.10;76.70;;;;;;936706;148;27305;-75
2022/07/10 02:32:48;;;;;;;1.27;1.00;;;16.10;76.70;;;;;;935862;151;27353;-75
2022/07/10 02:35:15;;;;;;;1.13;1.03;;;16.10;76.50;;;;;;936766;148;27427;-75
2022/07/10 02:37:41;;;;;;;1.00;1.00;;;16.10;76.40;;;;;;934854;151;27433;-75
2022/07/10 02:40:08;;;;;;;2.07;1.63;;;16.10;76.40;;;;;;936214;151;27374;-75
2022/07/10 02:42:35;;;;;;;1.30;1.20;;;16.10;76.20;;;;;;934262;151;27932;-75
2022/07/10 02:45:01;;;;;;;0.97;0.90;;;16.10;76.20;;;;;;934945;151;27391;-75
2022/07/10 02:47:28;;;;;;;1.73;0.93;;;16.10;76.20;;;;;;917164;154;28068;-75
2022/07/10 02:49:54;;;;;;;1.50;1.00;;;16.10;76.20;;;;;;936523;148;27325;-75
2022/07/10 02:52:21;;;;;;;4.00;2.13;;;16.00;76.00;;;;;;934529;151;27532;-76
2022/07/10 02:54:48;;;;;;;5.23;1.60;;;16.00;76.10;;;;;;936516;151;27468;-76
2022/07/10 02:57:14;;;;;;;1.37;1.07;;;16.00;76.00;;;;;;936721;148;27439;-76
2022/07/10 02:59:41;;;;;;;2.77;1.17;;;16.00;76.10;;;;;;936664;149;27329;-76
2022/07/10 03:02:07;;;;;;;2.47;1.30;;;15.90;76.20;;;;;;933798;151;27422;-76
2022/07/10 03:04:34;;;;;;;1.43;1.10;;;15.90;76.30;;;;;;934321;148;27457;-76
2022/07/10 03:07:01;;;;;;;2.50;1.10;;;15.90;76.50;;;;;;916993;150;27390;-76
2022/07/10 03:09:27;;;;;;;1.40;1.30;;;15.90;76.70;;;;;;935339;148;27468;-76
2022/07/10 03:11:54;;;;;;;2.17;1.00;;;15.90;76.80;;;;;;935370;148;27363;-76
2022/07/10 03:14:20;;;;;;;2.43;1.50;;;15.80;77.00;;;;;;933932;148;27272;-77
2022/07/10 03:16:47;;;;;;;1.47;1.20;;;15.80;77.10;;;;;;932122;148;27318;-76
2022/07/10 03:19:13;;;;;;;3.73;1.30;;;15.80;77.00;;;;;;937029;146;27370;-76
2022/07/10 03:21:40;;;;;;;3.67;1.83;;;15.90;77.00;;;;;;936312;148;27377;-76
2022/07/10 03:24:07;;;;;;;1.87;1.00;;;15.90;77.00;;;;;;936458;148;27429;-76
2022/07/10 03:26:33;;;;;;;2.10;1.10;;;15.90;77.00;;;;;;934542;148;27404;-76
2022/07/10 03:29:00;;;;;;;2.87;1.20;;;15.90;77.00;;;;;;933334;149;27335;-76
2022/07/10 03:31:26;;;;;;;4.83;1.27;;;15.90;77.00;;;;;;934352;149;27489;-76
2022/07/10 03:33:53;;;;;;;1.67;1.07;;;16.00;77.10;;;;;;933035;149;27373;-76
2022/07/10 03:36:20;;;;;;;1.77;1.23;;;16.00;77.00;;;;;;933790;149;27429;-76
2022/07/10 03:38:46;;;;;;;1.93;1.07;;;16.10;77.00;;;;;;931316;149;27355;-77
2022/07/10 03:41:13;;;;;;;1.70;0.83;;;16.10;77.00;;;;;;932446;149;27418;-76
2022/07/10 03:43:39;;;;;;;2.50;1.37;;;16.10;76.80;;;;;;934570;149;27375;-76
2022/07/10 03:46:06;;;;;;;4.57;1.47;;;16.20;76.90;;;;;;933415;149;27460;-77
2022/07/10 03:48:33;;;;;;;3.80;1.33;;;16.30;76.70;;;;;;932543;149;28065;-77
2022/07/10 03:50:59;;;;;;;1.10;1.10;;;16.30;76.40;;;;;;931871;149;27483;-77
2022/07/10 03:53:26;;;;;;;2.07;0.87;;;16.30;76.20;;;;;;932212;149;27287;-77
2022/07/10 03:55:53;;;;;;;1.47;1.13;;;16.40;76.00;;;;;;934325;149;27355;-77
2022/07/10 03:58:19;;;;;;;1.07;0.80;;;16.40;75.80;;;;;;932838;149;27477;-77
2022/07/10 04:00:45;;;;;;;3.23;1.40;;;16.40;75.70;;;;;;933153;149;27469;-77
2022/07/10 04:03:13;;;;;;;1.50;1.10;;;16.50;75.60;;;;;;932640;149;27339;-77
2022/07/10 04:05:39;;;;;;;3.80;1.17;;;16.50;75.50;;;;;;935371;151;27416;-76
2022/07/10 04:08:05;;;;;;;2.33;1.10;;;16.50;75.50;;;;;;935854;151;27350;-76
2022/07/10 04:10:32;;;;;;;3.27;1.10;;;16.60;75.50;;;;;;934663;151;27460;-76
2022/07/10 04:12:58;;;;;;;2.63;1.30;;;16.60;75.50;;;;;;936791;151;27348;-77
2022/07/10 04:15:25;;;;;;;2.77;1.27;;;16.60;76.10;;;;;;935492;149;28278;-77
2022/07/10 04:17:52;;;;;;;2.17;1.17;;;16.70;75.30;;;;;;934858;149;27464;-77
2022/07/10 04:20:18;;;;;;;3.10;1.27;;;16.70;75.30;;;;;;934249;151;27343;-77
2022/07/10 04:22:45;;;;;;;1.53;1.10;;;16.80;75.50;;;;;;935106;149;27463;-76
2022/07/10 04:25:11;;;;;;;3.17;1.10;;;16.90;75.60;;;;;;934381;149;27393;-77
2022/07/10 04:27:38;;;;;;;0.97;0.97;;;16.90;75.70;;;;;;920296;151;27391;-77
2022/07/10 04:30:05;;;;;;;3.27;0.90;;;17.00;75.80;;;;;;919447;151;27890;-77
2022/07/10 04:32:31;;;;;;;1.55;1.10;;;17.10;75.80;;;;;;920860;151;27364;-77
2022/07/10 04:34:58;;;;;;;2.58;1.80;;;17.20;75.80;;;;;;935246;149;27338;-77
2022/07/10 04:37:24;;;;;;;2.02;0.78;;;17.40;75.70;;;;;;935270;151;27341;-77
2022/07/10 04:39:51;;;;;;;3.00;1.60;;;17.50;75.50;;;;;;936462;151;27458;-78
2022/07/10 04:42:18;;;;;;;1.87;1.20;;;17.60;75.20;;;;;;935959;151;27378;-78
2022/07/10 04:44:44;;;;;;;1.95;1.07;;;17.70;74.90;;;;;;923344;151;27329;-77
2022/07/10 04:47:11;;;;;;;3.33;1.10;;;17.80;74.50;;;;;;922636;151;27332;-77
2022/07/10 04:49:37;;;;;;;1.82;1.27;;;18.00;74.10;;;;;;921881;154;27270;-77
2022/07/10 04:52:04;;;;;;;1.77;1.10;;;18.00;73.50;;;;;;918876;154;27785;-77
2022/07/10 04:54:32;;;;;;;1.82;0.80;;;18.10;73.20;;;;;;934204;151;27360;-78
2022/07/10 04:56:57;;;;;;;1.20;1.10;;;18.20;72.90;;;;;;936146;151;27327;-77
2022/07/10 04:59:24;;;;;;;1.87;1.20;;;18.20;72.60;;;;;;936514;151;27371;-77
2022/07/10 05:01:50;;;;;;;1.55;0.90;;;18.30;72.50;;;;;;936264;151;27439;-77
2022/07/10 05:04:17;;;;;;;1.90;1.00;;;18.20;72.20;;;;;;935967;148;27373;-76
2022/07/10 05:06:43;;;;;;;1.20;1.00;;;18.30;72.10;;;;;;935304;148;27459;-78
2022/07/10 05:09:10;;;;;;;1.90;1.35;;;18.30;71.90;;;;;;935109;148;28010;-77
2022/07/10 05:11:37;;;;;;;2.10;1.20;;;18.40;71.90;;;;;;935161;148;27349;-78
2022/07/10 05:14:03;;;;;;;1.35;0.90;;;18.50;71.70;;;;;;935694;148;27345;-78
2022/07/10 05:16:30;;;;;;;1.07;0.80;;;18.50;71.90;;;;;;934929;149;27310;-77
2022/07/10 05:18:56;;;;;;;1.57;0.93;;;18.60;71.50;;;;;;931844;149;27390;-79
2022/07/10 05:21:25;;;;;;;1.87;0.80;;;18.70;71.20;;;;;;933337;149;27351;-78
2022/07/10 05:23:50;;;;;;;1.77;0.85;;;18.70;70.90;;;;;;933726;149;27296;-77
2022/07/10 05:26:16;;;;;;;1.85;0.88;;;18.80;70.30;;;;;;932900;149;27369;-78
2022/07/10 05:28:43;;;;;;;1.40;1.17;;;18.90;70.00;;;;;;932765;149;27285;-76
2022/07/10 05:31:09;;;;;;;2.67;0.90;;;18.90;69.60;;;;;;933408;149;27398;-78
2022/07/10 05:33:38;;;;;;;1.62;0.80;;;19.00;69.50;;;;;;935099;149;27980;-78
2022/07/10 05:36:03;;;;;;;2.83;1.00;;;19.10;69.60;;;;;;933595;149;27338;-78
2022/07/10 05:38:29;;;;;;;1.40;0.90;;;19.20;69.60;;;;;;933092;149;27368;-77
2022/07/10 05:40:56;;;;;;;0.95;0.85;;;19.30;69.60;;;;;;934254;149;27381;-77
2022/07/10 05:43:22;;;;;;;2.20;0.88;;;19.50;69.60;;;;;;932959;149;27364;-77
2022/07/10 05:45:49;;;;;;;1.70;0.72;;;19.60;69.40;;;;;;932537;149;27391;-78
2022/07/10 05:48:15;;;;;;;1.42;0.93;;;19.80;69.00;;;;;;935188;149;27306;-78
2022/07/10 05:50:42;;;;;;;0.95;0.50;;;20.00;68.50;;;;;;932402;149;27299;-78
2022/07/10 05:53:09;;;;;;;1.85;0.80;;;20.30;69.10;;;;;;932483;149;27335;-76
2022/07/10 05:55:35;;;;;;;1.60;0.65;;;20.60;68.90;;;;;;932225;149;27375;-77
2022/07/10 05:58:02;;;;;;;0.93;0.78;;;20.90;67.60;;;;;;935691;149;27378;-78
2022/07/10 06:00:28;;;;;;;2.05;0.95;;;21.10;66.30;;;;;;932941;149;27476;-79
2022/07/10 06:02:55;;;;;;;1.60;1.05;;;21.30;65.30;;;;;;933103;149;27323;-79
2022/07/10 06:05:22;;;;;;;1.02;0.80;;;21.40;64.60;;;;;;918117;150;27518;-78
2022/07/10 06:07:48;;;;;;;1.30;0.70;;;21.50;64.10;;;;;;920353;154;27346;-78
2022/07/10 06:10:15;;;;;;;1.45;0.62;;;21.50;63.60;;;;;;919360;154;27363;-78
2022/07/10 06:12:41;;;;;;;1.30;0.80;;;21.50;63.10;;;;;;935376;151;27491;-79
2022/07/10 06:15:08;;;;;;;2.10;0.70;;;21.60;62.90;;;;;;937315;151;27331;-79
2022/07/10 06:17:35;;;;;;;1.65;0.82;;;21.60;62.50;;;;;;936652;151;27375;-78
2022/07/10 06:20:01;;;;;;;1.30;0.80;;;21.60;62.30;;;;;;937135;151;27298;-78
2022/07/10 06:22:30;;;;;;;0.85;0.53;;;21.60;61.80;;;;;;936167;151;27414;-77
2022/07/10 06:25:00;;;;;;;0.68;0.60;;;21.70;61.90;;;;;;936034;151;27706;-79
2022/07/10 06:27:26;;;;;;;1.98;0.62;;;21.70;61.90;;;;;;938801;151;27314;-81
2022/07/10 06:29:53;;;;;;;1.30;0.57;;;21.70;61.70;;;;;;937134;151;27330;-78
2022/07/10 06:32:19;;;;;;;1.90;0.78;;;21.90;61.50;;;;;;935404;151;27293;-77
2022/07/10 06:34:46;;;;;;;1.12;0.70;;;21.90;61.40;;;;;;936226;149;27458;-79
2022/07/10 06:37:12;;;;;;;0.60;0.60;;;22.00;61.00;;;;;;936073;148;28121;-79
2022/07/10 06:39:39;;;;;;;2.15;0.60;;;22.20;61.10;;;;;;937483;151;27305;-79
2022/07/10 06:42:06;;;;;;;0.95;0.55;;;22.30;61.30;;;;;;937475;151;27309;-79
2022/07/10 06:44:32;;;;;;;1.27;0.80;;;22.60;61.40;;;;;;936661;151;27315;-79
2022/07/10 06:49:44;;;;;;;1.60;0.88;;;23.30;60.30;;;;;;938536;149;27373;-79
2022/07/10 06:52:10;;;;;;;1.10;0.55;;;23.60;59.90;;;;;;936529;149;27417;-78
2022/07/10 06:54:37;;;;;;;2.25;0.60;;;24.00;59.10;;;;;;938100;151;27388;-78
2022/07/10 06:57:03;;;;;;;2.55;0.90;;;24.30;58.40;;;;;;935190;151;27360;-78
2022/07/10 06:59:30;;;;;;;1.77;0.68;;;24.70;57.90;;;;;;935754;151;27367;-76
2022/07/10 07:01:57;;;;;;;3.52;0.88;;;24.90;55.10;;;;;;934415;151;27438;-78
2022/07/10 07:04:23;;;;;;;0.82;0.60;;;25.20;55.10;;;;;;937228;151;27416;-78
2022/07/10 07:06:50;;;;;;;0.60;0.55;;;25.30;54.10;;;;;;936922;151;27334;-78
2022/07/10 07:09:16;;;;;;;2.30;0.60;;;25.30;54.00;;;;;;936866;151;27426;-77
2022/07/10 07:11:43;;;;;;;1.12;0.50;;;25.40;53.20;;;;;;936076;151;27399;-78
2022/07/10 07:14:09;;;;;;;1.57;0.70;;;25.40;53.30;;;;;;935992;149;27364;-79
2022/07/10 07:16:42;;;;;;;1.22;0.72;;;25.50;53.70;;;;;;920924;154;27367;-79
2022/07/10 07:19:06;;;;;;;1.07;0.60;;;25.70;54.30;;;;;;918832;151;27320;-79
2022/07/10 07:24:19;;;;;;;1.45;0.35;;;26.80;56.00;;;;;;936146;151;27359;-77
2022/07/10 07:26:48;;;;;;;1.15;0.80;;;27.60;55.40;;;;;;936120;151;27370;-78
2022/07/10 07:29:13;;;;;;;1.40;0.55;;;28.40;54.70;;;;;;932899;151;27394;-78
2022/07/10 07:31:39;;;;;;;1.02;0.65;;;29.20;53.10;;;;;;937880;151;27321;-78
2022/07/10 07:34:06;;;;;;;1.05;0.53;;;29.80;50.00;;;;;;920521;151;27344;-79
2022/07/10 07:36:32;;;;;;;2.22;0.75;;;30.10;48.70;;;;;;921938;154;27336;-77
2022/07/10 07:38:59;;;;;;;0.88;0.60;;;30.20;47.40;;;;;;920994;152;27468;-78
2022/07/10 07:41:25;;;;;;;2.40;0.60;;;30.20;46.70;;;;;;918021;154;27909;-78
2022/07/10 07:43:52;;;;;;;1.37;0.65;;;30.00;46.20;;;;;;934678;151;27425;-79
2022/07/10 07:46:19;;;;;;;1.45;0.40;;;29.70;45.20;;;;;;936534;151;27790;-79
2022/07/10 07:48:45;;;;;;;1.85;0.53;;;29.40;45.00;;;;;;935311;151;27303;-77
2022/07/10 07:51:13;;;;;;;1.22;0.42;;;29.00;43.50;;;;;;937421;151;27411;-78
2022/07/10 07:53:38;;;;;;;1.67;0.93;;;28.50;43.10;;;;;;936073;148;27366;-78
2022/07/10 07:56:05;;;;;;;2.33;0.80;;;28.00;43.40;;;;;;921413;154;27347;-77
2022/07/10 07:58:32;;;;;;;1.35;0.60;;;27.40;44.00;;;;;;921526;151;27337;-78
2022/07/10 08:00:58;;;;;;;0.78;0.60;;;27.00;44.30;;;;;;936850;151;27281;-78
2022/07/10 08:03:25;;;;;;;0.75;0.60;;;26.50;44.50;;;;;;937600;151;27357;-76
2022/07/10 08:05:51;;;;;;;0.60;0.60;;;26.10;44.80;;;;;;936034;148;27341;-78
2022/07/10 08:08:18;;;;;;;1.37;1.02;;;25.70;45.10;;;;;;920863;151;27405;-78
2022/07/10 08:10:45;;;;;;;0.88;0.50;;;25.30;45.30;;;;;;936240;151;27274;-79
2022/07/10 08:13:11;;;;;;;1.45;0.70;;;25.00;45.80;;;;;;934368;151;27332;-78
2022/07/10 08:15:38;;;;;;;1.87;0.75;;;24.70;46.10;;;;;;938120;151;27351;-78
2022/07/10 08:18:04;;;;;;;2.22;0.60;;;24.50;46.30;;;;;;935350;149;27451;-78
2022/07/10 08:20:31;;;;;;;0.98;0.60;;;24.30;46.80;;;;;;936590;149;27446;-77
2022/07/10 08:22:58;;;;;;;1.20;0.60;;;24.10;47.10;;;;;;933461;151;27308;-77
2022/07/10 08:25:24;;;;;;;0.78;0.40;;;24.00;47.50;;;;;;932394;150;27404;-77
2022/07/10 08:27:51;;;;;;;1.02;0.60;;;23.90;48.10;;;;;;915928;155;27294;-78
2022/07/10 08:30:17;;;;;;;1.52;0.80;;;23.90;47.80;;;;;;935860;151;28135;-76
2022/07/10 08:32:44;;;;;;;5.58;1.05;;;23.90;48.00;;;;;;936036;149;27388;-77
2022/07/10 08:35:11;;;;;;;0.45;0.40;;;23.90;48.40;;;;;;936418;151;28452;-77
2022/07/10 08:37:37;;;;;;;1.80;0.68;;;23.90;48.50;;;;;;934476;149;27315;-77
2022/07/10 08:40:04;;;;;;;0.62;0.40;;;24.00;48.60;;;;;;934820;151;27338;-77
2022/07/10 08:42:30;;;;;;;0.75;0.50;;;24.10;48.50;;;;;;935815;149;27324;-76
2022/07/10 08:44:57;;;;;;;0.93;0.60;;;24.20;48.20;;;;;;918473;151;27931;-77
2022/07/10 08:47:25;;;;;;;0.68;0.25;;;24.30;48.10;;;;;;918722;151;27393;-78
2022/07/10 08:49:50;;;;;;;2.00;0.47;;;24.30;47.80;;;;;;919920;151;27391;-76
2022/07/10 08:52:22;;;;;;;0.88;0.50;;;24.40;47.60;;;;;;922536;151;27464;-78
2022/07/10 08:54:49;;;;;;;1.10;0.60;;;24.40;47.50;;;;;;919541;151;27380;-77
2022/07/10 08:57:16;;;;;;;0.70;0.60;;;24.30;47.50;;;;;;922591;151;27466;-78
2022/07/10 08:59:42;;;;;;;0.70;0.45;;;24.30;47.60;;;;;;922312;151;27379;-77
2022/07/10 09:02:09;;;;;;;0.90;0.78;;;24.40;47.70;;;;;;936009;151;27367;-77
2022/07/10 09:04:35;;;;;;;0.70;0.45;;;24.40;47.80;;;;;;935259;151;27353;-78
2022/07/10 09:07:04;;;;;;;0.78;0.42;;;24.50;47.10;;;;;;934865;149;27275;-78
2022/07/10 09:09:29;;;;;;;0.62;0.40;;;24.50;46.90;;;;;;935615;148;27469;-76
2022/07/10 09:11:55;;;;;;;1.70;0.53;;;24.50;47.20;;;;;;935828;148;27360;-79
2022/07/10 09:14:23;;;;;;;0.60;0.50;;;24.50;46.80;;;;;;934501;148;27783;-79
2022/07/10 09:16:48;;;;;;;2.08;1.00;;;24.50;46.80;;;;;;933862;148;27410;-78
2022/07/10 09:19:20;;;;;;;0.98;0.70;;;24.50;46.90;;;;;;936168;148;27425;-78
2022/07/10 09:21:47;;;;;;;0.70;0.50;;;24.50;47.80;;;;;;936171;148;27422;-79
2022/07/10 09:24:14;;;;;;;0.95;0.50;;;24.50;47.20;;;;;;934597;148;27668;-78
2022/07/10 09:26:40;;;;;;;0.88;0.57;;;24.60;47.20;;;;;;934907;148;27395;-77
2022/07/10 09:29:10;;;;;;;1.67;0.62;;;24.70;47.00;;;;;;934941;148;27330;-79
2022/07/10 09:31:54;;;;;;;0.72;0.72;;;24.70;46.80;;;;;;937040;148;27454;-76
2022/07/10 09:34:42;;;;;;;1.20;0.42;;;24.80;46.80;;;;;;936587;148;27362;-79
2022/07/10 09:37:27;;;;;;;1.30;0.60;;;24.80;46.50;;;;;;933555;148;27471;-76
2022/07/10 09:39:59;;;;;;;0.65;0.47;;;24.90;46.00;;;;;;934246;148;27332;-76
2022/07/10 09:42:37;;;;;;;1.10;0.50;;;24.80;46.40;;;;;;934534;148;27429;-77
2022/07/10 09:45:13;;;;;;;1.55;0.70;;;24.90;46.60;;;;;;934069;148;27422;-77
2022/07/10 09:47:40;;;;;;;3.10;0.98;;;24.90;46.90;;;;;;937300;148;27610;-77
2022/07/10 09:50:22;;;;;;;0.95;0.50;;;25.00;46.60;;;;;;933757;148;28782;-78
2022/07/10 09:52:48;;;;;;;0.57;0.42;;;25.20;46.90;;;;;;935315;148;27414;-78
2022/07/10 09:55:14;;;;;;;3.27;0.70;;;25.30;46.80;;;;;;932150;148;27444;-78
2022/07/10 09:57:41;;;;;;;0.80;0.80;;;25.50;46.80;;;;;;935552;148;27285;-78
2022/07/10 10:00:08;;;;;;;1.20;1.10;;;25.80;46.70;;;;;;934534;148;27419;-75
2022/07/10 10:02:34;;;;;;;0.80;0.80;;;26.10;47.10;;;;;;934243;148;27377;-79
2022/07/10 10:05:01;;;;;;;1.27;0.78;;;26.50;47.20;;;;;;931832;149;27456;-79
2022/07/10 10:07:28;;;;;;;1.35;0.70;;;27.00;47.20;;;;;;930715;149;27378;-79
2022/07/10 10:09:56;;;;;;;1.40;0.70;;;27.50;46.60;;;;;;919858;154;27437;-77
2022/07/10 10:12:21;;;;;;;0.85;0.57;;;27.90;46.10;;;;;;935909;151;27395;-79
2022/07/10 10:14:47;;;;;;;1.98;0.68;;;28.30;45.40;;;;;;934457;149;27375;-76
2022/07/10 10:17:14;;;;;;;1.50;0.62;;;28.60;44.40;;;;;;935232;149;27978;-79
2022/07/10 10:22:25;;;;;;;1.72;0.93;;;29.00;43.50;;;;;;934792;151;27490;-76
2022/07/10 10:24:52;;;;;;;2.72;0.68;;;29.00;43.70;;;;;;937168;151;27278;-79
2022/07/10 10:27:18;;;;;;;1.82;0.68;;;29.10;42.80;;;;;;934201;149;27443;-76
2022/07/10 10:29:45;;;;;;;2.27;0.98;;;29.10;42.40;;;;;;937238;148;27436;-80
2022/07/10 10:32:12;;;;;;;1.15;0.80;;;29.10;42.60;;;;;;936127;151;27316;-78
2022/07/10 10:34:44;;;;;;;1.10;0.72;;;29.10;42.40;;;;;;935383;149;27340;-80
2022/07/10 10:37:36;;;;;;;0.88;0.57;;;29.10;42.30;;;;;;936711;149;27328;-79
2022/07/10 10:40:02;;;;;;;1.40;0.72;;;29.20;41.80;;;;;;936435;151;27344;-78
2022/07/10 10:42:42;;;;;;;1.25;0.57;;;29.20;41.80;;;;;;936574;151;27540;-76
2022/07/10 10:45:27;;;;;;;1.30;0.70;;;29.10;41.00;;;;;;936110;151;27430;-79
2022/07/10 10:48:08;;;;;;;1.85;0.90;;;28.90;40.70;;;;;;936982;149;27290;-79
2022/07/10 10:50:38;;;;;;;1.60;0.80;;;28.70;41.00;;;;;;936242;148;27351;-78
2022/07/10 10:53:03;;;;;;;1.17;0.70;;;28.40;40.70;;;;;;922758;154;27381;-78
2022/07/10 10:55:29;;;;;;;1.10;0.70;;;28.20;40.90;;;;;;935071;151;27442;-75
2022/07/10 10:57:55;;;;;;;2.25;0.75;;;28.00;41.30;;;;;;935598;148;27391;-79
2022/07/10 11:00:37;;;;;;;1.22;0.85;;;27.80;41.30;;;;;;933615;149;27326;-79
2022/07/10 11:03:19;;;;;;;1.45;0.78;;;27.70;41.40;;;;;;935999;151;27308;-78
2022/07/10 11:05:45;;;;;;;1.75;0.50;;;27.50;41.70;;;;;;935744;149;27271;-80
2022/07/10 11:08:12;;;;;;;1.45;0.80;;;27.50;42.10;;;;;;941566;146;27428;-76
2022/07/10 11:10:39;;;;;;;1.98;0.70;;;27.40;42.00;;;;;;951863;146;27365;-80
2022/07/10 11:13:14;;;;;;;1.00;0.62;;;27.40;42.20;;;;;;950433;146;27327;-79
2022/07/10 11:15:43;;;;;;;2.67;0.53;;;27.40;42.30;;;;;;953671;146;27284;-80
2022/07/10 11:18:15;;;;;;;1.05;0.88;;;27.50;42.40;;;;;;952067;146;27304;-81
2022/07/10 11:20:51;;;;;;;0.93;0.90;;;27.50;42.50;;;;;;953765;146;27389;-78
2022/07/10 11:23:55;;;;;;;2.60;0.90;;;27.70;42.60;;;;;;952294;146;27484;-80
2022/07/10 11:26:31;;;;;;;2.17;1.25;;;27.80;42.50;;;;;;941866;148;27437;-80
2022/07/10 11:28:59;;;;;;;1.32;0.57;;;27.90;41.70;;;;;;940426;148;27304;-80
2022/07/10 11:31:26;;;;;;;2.30;0.78;;;28.00;41.50;;;;;;933973;149;27414;-80
2022/07/10 11:33:53;;;;;;;5.53;1.00;;;28.00;41.40;;;;;;950911;146;27339;-80
2022/07/10 11:36:25;;;;;;;1.45;0.72;;;28.00;41.40;;;;;;951573;146;27438;-78
2022/07/10 11:38:49;;;;;;;1.67;1.00;;;28.00;41.30;;;;;;934778;149;27399;-76
2022/07/10 11:41:18;;;;;;;1.95;0.78;;;28.10;41.30;;;;;;939297;149;27308;-75
2022/07/10 11:43:50;;;;;;;0.78;0.70;;;28.10;40.90;;;;;;943779;148;27424;-76
2022/07/10 11:46:17;;;;;;;2.55;0.98;;;28.10;40.90;;;;;;941172;150;27364;-77
2022/07/10 11:48:43;;;;;;;2.05;0.60;;;28.00;41.00;;;;;;943658;148;27862;-76
2022/07/10 11:51:25;;;;;;;1.57;1.22;;;28.00;41.00;;;;;;944097;148;27389;-76
2022/07/10 11:54:03;;;;;;;2.47;1.05;;;28.00;41.10;;;;;;940576;148;27373;-76
2022/07/10 11:56:32;;;;;;;1.55;1.10;;;28.00;41.30;;;;;;942878;150;27418;-76
2022/07/10 11:58:57;;;;;;;2.77;1.00;;;28.00;41.40;;;;;;942622;148;27445;-77
2022/07/10 12:01:23;;;;;;;1.15;0.78;;;28.10;41.30;;;;;;936235;149;27493;-77
2022/07/10 12:04:05;;;;;;;0.90;0.80;;;28.10;41.20;;;;;;952664;146;27336;-78
2022/07/10 12:06:31;;;;;;;1.90;0.93;;;28.20;41.40;;;;;;952650;146;27314;-78
2022/07/10 12:09:13;;;;;;;1.65;0.85;;;28.30;41.20;;;;;;946391;146;27442;-76
2022/07/10 12:11:40;;;;;;;1.50;0.70;;;28.30;40.90;;;;;;935967;148;27357;-78
2022/07/10 12:14:16;;;;;;;1.87;1.05;;;28.40;40.90;;;;;;934991;148;27441;-79
2022/07/10 12:16:44;;;;;;;2.98;1.60;;;28.40;40.80;;;;;;935912;148;27427;-77
2022/07/10 12:19:08;;;;;;;2.47;1.10;;;28.50;41.00;;;;;;932715;148;27309;-76
2022/07/10 12:21:35;;;;;;;2.70;0.90;;;28.50;40.70;;;;;;934010;148;27332;-76
2022/07/10 12:24:02;;;;;;;1.32;0.78;;;28.50;40.50;;;;;;934788;148;27352;-75
2022/07/10 12:26:34;;;;;;;2.08;0.90;;;28.50;40.30;;;;;;936945;148;27371;-75
2022/07/10 12:29:00;;;;;;;1.17;0.65;;;28.50;40.30;;;;;;931270;149;27456;-76
2022/07/10 12:31:27;;;;;;;1.95;0.70;;;28.50;40.30;;;;;;931594;150;27322;-76
2022/07/10 12:33:54;;;;;;;1.00;0.82;;;28.50;40.30;;;;;;929418;150;27300;-76
2022/07/10 12:36:20;;;;;;;2.33;0.90;;;28.60;40.50;;;;;;930504;149;27346;-76
2022/07/10 12:38:47;;;;;;;1.00;0.95;;;28.70;40.50;;;;;;929503;150;27477;-77
2022/07/10 12:41:13;;;;;;;2.05;0.88;;;28.80;40.30;;;;;;920819;150;27505;-76
2022/07/10 12:43:40;;;;;;;1.67;0.80;;;28.90;40.00;;;;;;916759;150;27426;-77
2022/07/10 12:46:16;;;;;;;0.98;0.78;;;29.00;39.90;;;;;;934960;148;27323;-78
2022/07/10 12:48:44;;;;;;;2.52;1.30;;;29.10;39.80;;;;;;935529;148;27330;-77
2022/07/10 12:51:24;;;;;;;2.00;1.10;;;29.10;39.80;;;;;;916098;151;27409;-75
2022/07/10 12:53:50;;;;;;;2.62;1.00;;;29.10;39.50;;;;;;937501;148;27435;-77
2022/07/10 12:56:26;;;;;;;1.27;0.70;;;29.20;39.30;;;;;;938576;148;27288;-76
2022/07/10 12:58:52;;;;;;;0.90;0.75;;;29.10;39.10;;;;;;936147;148;27448;-79
2022/07/10 13:01:19;;;;;;;1.37;0.80;;;29.10;39.00;;;;;;938426;148;27346;-76